Naestved, Denmark
Current Conditions -  °F | °C
As of 5:20 AM on Wednesday 28 Jan 2015 (Local Time) from EKRK Reporting Station
Moderate Fog Moderate Fog  
Wind Chill: 28°   Ceiling: 200
Heat Index: 36°   Visibility: 0.34mi
Dew Point: 36°   Wind: 10mph
Humidity: 100%   Direction: 220°SW
Pressure: 29.77"   Gusts: NA
Location:  55.23°N, 11.76°E
Report Text: EKRK 280420Z AUTO 22009KT 0550NDV R11/P1500N R29/P1500NFG VV002 02/02 Q1008
Loading
Personal Weather Stations






























Interactive Weather Map New forecast layout! Learn more

10-Day Weather Forecast

Advertisements
Track Severe Weather on mobile